Port Jefferson, New York
Current Conditions -  °F | °C
As of 4:56 AM on Thursday 29 Jan 2015 (Local Time) from KISP Reporting Station
Clear Clear  
Wind Chill: 11°   Ceiling: Unl
Heat Index: 11°   Visibility: 10mi
Dew Point:   Wind: 3mph
Humidity: 67%   Direction: 10°N
Pressure: 30.27"   Gusts: NA
Location:  40.95°N, 73.07°W
Report Text: KISP 290956Z AUTO 01003KT 10SM CLR M12/M17 A3027 RMK AO2 SLP252 T11171167
Loading
Personal Weather Stations






























Interactive Weather Map New forecast layout! Learn more

10-Day Weather Forecast

Advertisements
Track Severe Weather on mobile